createdAt,value
2023-05-15T00:00:51.705Z,70.03
2023-05-15T00:03:19.671Z,70.10
2023-05-15T00:05:48.403Z,70.32
2023-05-15T00:08:15.778Z,71.35
2023-05-15T00:10:57.545Z,72.31
2023-05-15T00:13:27.799Z,72.17
2023-05-15T00:15:55.908Z,71.26
2023-05-15T00:18:23.922Z,71.83
2023-05-15T00:20:53.003Z,71.67
2023-05-15T00:23:21.058Z,72.05
2023-05-15T00:25:48.735Z,71.55
2023-05-15T00:28:16.119Z,70.63
2023-05-15T00:30:44.334Z,71.28
2023-05-15T00:33:12.591Z,71.58
2023-05-15T00:35:39.960Z,70.94
2023-05-15T00:38:08.201Z,70.28
2023-05-15T00:40:37.978Z,69.31
2023-05-15T00:43:05.854Z,69.97
2023-05-15T00:45:34.284Z,70.32
2023-05-15T00:48:01.943Z,70.91
2023-05-15T00:50:29.525Z,70.77
2023-05-15T00:52:58.552Z,70.72
2023-05-15T00:55:34.660Z,70.61
2023-05-15T00:58:03.972Z,70.14
2023-05-15T01:00:33.116Z,70.08
2023-05-15T01:03:01.976Z,69.39
2023-05-15T01:05:29.890Z,69.55
2023-05-15T01:08:17.957Z,70.03
2023-05-15T01:10:46.216Z,70.06
2023-05-15T01:13:14.313Z,71.59
2023-05-15T01:15:42.489Z,72.54
2023-05-15T01:18:12.246Z,72.74
2023-05-15T01:20:58.635Z,72.20
2023-05-15T01:23:26.401Z,71.69
2023-05-15T01:26:12.176Z,71.84
2023-05-15T01:28:43.626Z,72.81
2023-05-15T01:31:15.874Z,73.43
2023-05-15T01:33:44.518Z,72.90
2023-05-15T01:36:24.536Z,72.44
2023-05-15T01:38:53.546Z,72.29
2023-05-15T01:41:21.519Z,73.85
2023-05-15T01:43:55.758Z,72.62
2023-05-15T01:46:23.988Z,72.25
2023-05-15T01:48:51.703Z,72.09
2023-05-15T01:51:19.155Z,72.02
2023-05-15T01:53:47.207Z,71.25
2023-05-15T01:56:16.951Z,71.40
2023-05-15T01:58:46.270Z,71.11
2023-05-15T02:01:14.919Z,70.24
2023-05-15T02:03:42.768Z,70.50
2023-05-15T02:06:10.029Z,71.36
2023-05-15T02:08:38.263Z,70.87
2023-05-15T02:11:05.875Z,70.72
2023-05-15T02:13:34.358Z,70.45
2023-05-15T02:16:01.784Z,70.20
2023-05-15T02:18:30.119Z,70.10
2023-05-15T02:21:04.619Z,70.39
2023-05-15T02:23:33.970Z,71.34
2023-05-15T02:26:05.417Z,70.45
2023-05-15T02:28:52.769Z,70.36
2023-05-15T02:31:26.908Z,70.02
2023-05-15T02:34:09.294Z,70.29
2023-05-15T02:36:37.370Z,69.70
2023-05-15T02:39:04.976Z,70.17
2023-05-15T02:41:32.416Z,69.59
2023-05-15T02:44:00.337Z,69.82
2023-05-15T02:46:28.901Z,69.56
2023-05-15T02:48:57.424Z,69.25
2023-05-15T02:51:25.073Z,69.06
2023-05-15T02:53:54.018Z,69.06
2023-05-15T02:56:22.438Z,69.02
2023-05-15T02:58:50.309Z,69.12
2023-05-15T03:01:19.686Z,68.83
2023-05-15T03:03:48.338Z,68.53
2023-05-15T03:06:17.172Z,68.88
2023-05-15T03:08:49.676Z,68.72
2023-05-15T03:11:19.331Z,68.99
2023-05-15T03:13:47.166Z,68.38
2023-05-15T03:16:14.938Z,67.93
2023-05-15T03:18:44.176Z,67.08
2023-05-15T03:21:14.494Z,69.44
2023-05-15T03:23:42.527Z,68.69
2023-05-15T03:26:11.992Z,69.91
2023-05-15T03:28:42.287Z,70.20
2023-05-15T03:31:10.808Z,69.93
2023-05-15T03:33:38.348Z,68.64
2023-05-15T03:36:06.458Z,68.49
2023-05-15T03:38:36.432Z,68.66
2023-05-15T03:41:14.932Z,69.29
2023-05-15T03:43:42.701Z,69.20
2023-05-15T03:46:10.278Z,68.97
2023-05-15T03:48:40.839Z,69.04
2023-05-15T03:51:09.257Z,69.06
2023-05-15T03:53:36.732Z,67.80
2023-05-15T03:56:08.519Z,68.35
2023-05-15T03:58:39.149Z,68.73
2023-05-15T04:01:08.196Z,68.50
2023-05-15T04:03:36.337Z,67.86
2023-05-15T04:06:05.506Z,67.39
2023-05-15T04:08:33.426Z,67.44
2023-05-15T04:11:03.442Z,68.21
2023-05-15T04:13:31.741Z,68.35
2023-05-15T04:16:00.289Z,67.47
2023-05-15T04:18:29.362Z,67.80
2023-05-15T04:20:58.387Z,68.40
2023-05-15T04:23:26.083Z,69.14
2023-05-15T04:25:55.570Z,68.68
2023-05-15T04:28:24.549Z,68.55
2023-05-15T04:30:52.087Z,69.06
2023-05-15T04:33:21.539Z,69.10
2023-05-15T04:35:49.762Z,69.26
2023-05-15T04:38:17.870Z,69.12
2023-05-15T04:43:26.808Z,68.82
2023-05-15T04:45:59.447Z,69.09
2023-05-15T04:48:33.597Z,68.82
2023-05-15T04:51:02.834Z,69.05
2023-05-15T04:53:31.042Z,69.09
2023-05-15T04:55:59.888Z,68.65
2023-05-15T04:58:27.922Z,68.49
2023-05-15T05:01:04.117Z,68.01
2023-05-15T05:03:34.942Z,68.02
2023-05-15T05:06:10.251Z,68.22
2023-05-15T05:08:39.010Z,68.32
2023-05-15T05:11:11.410Z,68.15
2023-05-15T05:13:40.431Z,67.95
2023-05-15T05:16:07.942Z,68.06
2023-05-15T05:18:38.666Z,68.71
2023-05-15T05:21:08.764Z,69.11
2023-05-15T05:23:37.254Z,69.25
2023-05-15T05:26:06.917Z,68.72
2023-05-15T05:28:35.635Z,68.47
2023-05-15T05:31:06.192Z,68.76
2023-05-15T05:33:35.613Z,68.70
2023-05-15T05:36:05.641Z,68.33
2023-05-15T05:38:34.610Z,68.23
2023-05-15T05:43:43.411Z,68.69
2023-05-15T05:46:10.813Z,69.13
2023-05-15T05:48:40.448Z,69.03
2023-05-15T05:51:08.452Z,68.67
2023-05-15T05:53:39.509Z,69.74
2023-05-15T05:58:45.532Z,69.31
2023-05-15T06:01:21.455Z,69.45
2023-05-15T06:04:23.448Z,68.70
2023-05-15T06:07:11.473Z,69.02
2023-05-15T06:10:04.046Z,69.35
2023-05-15T06:12:35.450Z,68.86
2023-05-15T06:15:04.164Z,69.15
2023-05-15T06:17:38.593Z,68.94
2023-05-15T06:20:08.631Z,68.17
2023-05-15T06:22:46.162Z,66.80
2023-05-15T06:25:26.958Z,67.81
2023-05-15T06:27:56.343Z,68.20
2023-05-15T06:30:24.404Z,67.92
2023-05-15T06:32:56.131Z,67.95
2023-05-15T06:35:27.147Z,67.76
2023-05-15T06:38:04.897Z,68.22
2023-05-15T06:40:33.322Z,67.67
2023-05-15T06:43:09.021Z,66.82
2023-05-15T06:45:38.076Z,66.10
2023-05-15T06:48:07.988Z,66.05
2023-05-15T06:50:36.184Z,66.67
2023-05-15T06:53:04.476Z,67.00
2023-05-15T06:55:35.369Z,66.50
2023-05-15T06:58:05.972Z,66.45
2023-05-15T07:00:34.558Z,65.21
2023-05-15T07:03:04.141Z,65.47
2023-05-15T07:05:40.719Z,66.45
2023-05-15T07:08:18.743Z,65.29
2023-05-15T07:10:52.587Z,63.74
2023-05-15T07:13:24.679Z,65.15
2023-05-15T07:15:54.585Z,64.34
2023-05-15T07:18:23.497Z,63.03
2023-05-15T07:20:53.781Z,65.68
2023-05-15T07:23:22.048Z,66.79
2023-05-15T07:26:00.447Z,66.05
2023-05-15T07:28:36.596Z,65.08
2023-05-15T07:31:04.984Z,64.38
2023-05-15T07:33:35.229Z,64.38
2023-05-15T07:36:02.839Z,64.56
2023-05-15T07:38:31.067Z,64.26
2023-05-15T07:40:59.621Z,64.21
2023-05-15T07:43:27.977Z,65.07
2023-05-15T07:45:59.072Z,62.90
2023-05-15T07:48:27.561Z,65.63
2023-05-15T07:53:33.374Z,64.21
2023-05-15T07:56:00.853Z,64.24
2023-05-15T07:58:37.294Z,64.05
2023-05-15T08:03:46.709Z,65.36
2023-05-15T08:06:23.567Z,64.26
2023-05-15T08:08:53.491Z,63.74
2023-05-15T08:11:23.528Z,63.00
2023-05-15T08:13:52.351Z,63.02
2023-05-15T08:16:20.003Z,63.29
2023-05-15T08:18:48.031Z,63.08
2023-05-15T08:21:16.872Z,62.83
2023-05-15T08:23:47.934Z,63.11
2023-05-15T08:26:20.137Z,63.02
2023-05-15T08:28:51.199Z,62.26
2023-05-15T08:31:26.443Z,61.93
2023-05-15T08:33:54.803Z,64.21
2023-05-15T08:36:24.083Z,62.21
2023-05-15T08:38:54.692Z,61.78
2023-05-15T08:41:39.866Z,63.62
2023-05-15T08:44:11.481Z,61.82
2023-05-15T08:46:44.574Z,61.92
2023-05-15T08:49:26.661Z,59.41
2023-05-15T08:51:56.828Z,59.89
2023-05-15T08:54:48.532Z,60.36
2023-05-15T08:57:37.462Z,57.56
2023-05-15T09:00:27.841Z,59.23
2023-05-15T09:03:07.584Z,57.53
2023-05-15T09:05:43.937Z,57.54
2023-05-15T09:08:11.898Z,59.11
2023-05-15T09:10:49.918Z,59.47
2023-05-15T09:13:22.650Z,58.64
2023-05-15T09:15:50.884Z,58.40
2023-05-15T09:18:19.605Z,57.64
2023-05-15T09:20:49.696Z,57.55
2023-05-15T09:23:38.640Z,56.49
2023-05-15T09:26:13.852Z,57.57
2023-05-15T09:28:46.682Z,58.28
2023-05-15T09:31:19.733Z,58.13
2023-05-15T09:33:59.305Z,58.16
2023-05-15T09:36:28.121Z,57.80
2023-05-15T09:38:59.350Z,57.37
2023-05-15T09:41:35.507Z,57.64
2023-05-15T09:44:24.798Z,58.66
2023-05-15T09:46:55.520Z,57.61
2023-05-15T09:50:10.484Z,57.62
2023-05-15T09:52:42.923Z,57.85
2023-05-15T09:55:16.680Z,58.93
2023-05-15T09:57:46.067Z,57.65
2023-05-15T10:00:18.159Z,58.03
2023-05-15T10:02:46.314Z,56.70
2023-05-15T10:05:25.975Z,54.87
2023-05-15T10:08:03.703Z,55.62
2023-05-15T10:14:38.466Z,56.79
2023-05-15T10:17:07.624Z,55.52
2023-05-15T10:19:37.580Z,55.08
2023-05-15T10:22:12.359Z,54.81
2023-05-15T10:24:40.311Z,56.42
2023-05-15T10:27:08.596Z,56.97
2023-05-15T10:29:38.835Z,56.10
2023-05-15T10:32:07.286Z,57.07
2023-05-15T10:34:39.179Z,54.65
2023-05-15T10:37:07.538Z,56.21
2023-05-15T10:39:38.444Z,56.77
2023-05-15T10:42:14.579Z,57.50
2023-05-15T10:45:06.208Z,55.90
2023-05-15T10:47:52.874Z,54.64
2023-05-15T10:50:24.143Z,54.69
2023-05-15T10:52:54.741Z,54.50
2023-05-15T10:55:26.109Z,55.00
2023-05-15T10:57:55.061Z,53.51
2023-05-15T11:00:23.718Z,53.79
2023-05-15T11:03:00.537Z,53.12
2023-05-15T11:05:35.949Z,52.31
2023-05-15T11:08:26.473Z,53.02
2023-05-15T11:10:55.490Z,54.53
2023-05-15T11:13:28.072Z,52.39
2023-05-15T11:15:57.488Z,53.20
2023-05-15T11:18:25.892Z,51.68
2023-05-15T11:20:53.568Z,51.70
2023-05-15T11:23:24.548Z,52.63
2023-05-15T11:25:58.151Z,52.60
2023-05-15T11:28:31.776Z,52.75
2023-05-15T11:31:00.159Z,51.13
2023-05-15T11:33:33.857Z,53.12
2023-05-15T11:36:04.913Z,52.31
2023-05-15T11:38:38.161Z,50.05
2023-05-15T11:41:25.491Z,53.90
2023-05-15T11:43:53.351Z,51.13
2023-05-15T11:46:22.259Z,51.98
2023-05-15T11:48:50.676Z,50.34
2023-05-15T11:51:25.213Z,50.67
2023-05-15T11:53:56.513Z,50.63
2023-05-15T11:56:28.585Z,49.64
2023-05-15T12:01:48.694Z,51.80
2023-05-15T12:04:18.279Z,51.38
2023-05-15T12:06:53.288Z,52.96
2023-05-15T12:09:27.640Z,50.27
2023-05-15T12:11:56.250Z,53.54
2023-05-15T12:14:35.497Z,52.60
2023-05-15T12:17:06.515Z,52.32
2023-05-15T12:19:35.905Z,50.74
2023-05-15T12:27:20.654Z,51.37
2023-05-15T12:29:48.779Z,50.42
2023-05-15T12:35:00.013Z,51.27
2023-05-15T12:37:31.788Z,49.79
2023-05-15T12:40:12.852Z,49.51
2023-05-15T12:45:20.564Z,48.65
2023-05-15T12:47:50.120Z,50.64
2023-05-15T12:50:21.059Z,51.05
2023-05-15T12:52:56.770Z,48.80
2023-05-15T12:55:26.120Z,49.32
2023-05-15T12:58:10.622Z,50.35
2023-05-15T13:00:43.640Z,50.00
2023-05-15T13:03:28.809Z,47.13
2023-05-15T13:06:45.608Z,48.63
2023-05-15T13:09:28.512Z,47.97
2023-05-15T13:12:24.613Z,49.15
2023-05-15T13:15:30.429Z,48.08
2023-05-15T13:18:19.361Z,47.78
2023-05-15T13:21:01.828Z,47.36
2023-05-15T13:24:06.514Z,49.33
2023-05-15T13:26:50.622Z,46.10
2023-05-15T13:29:34.025Z,48.44
2023-05-15T13:32:23.587Z,49.36
2023-05-15T13:34:54.946Z,50.17
2023-05-15T13:37:29.370Z,48.48
2023-05-15T13:39:59.309Z,48.69
2023-05-15T13:42:32.949Z,48.14
2023-05-15T13:45:13.540Z,46.01
2023-05-15T13:47:44.151Z,46.82
2023-05-15T13:50:17.720Z,48.41
2023-05-15T13:52:47.115Z,47.65
2023-05-15T13:55:23.280Z,45.49
2023-05-15T13:58:20.848Z,48.78
2023-05-15T14:00:49.926Z,47.14
2023-05-15T14:03:28.686Z,46.99
2023-05-15T14:06:05.107Z,47.93
2023-05-15T14:11:14.670Z,46.63
2023-05-15T14:13:55.458Z,47.37
2023-05-15T14:16:24.015Z,46.32
2023-05-15T14:18:53.577Z,44.48
2023-05-15T14:21:29.575Z,45.96
2023-05-15T14:24:04.989Z,44.53
2023-05-15T14:26:33.849Z,44.85
2023-05-15T14:29:02.543Z,44.39
2023-05-15T14:31:32.507Z,44.90
2023-05-15T14:34:02.549Z,45.84
2023-05-15T14:36:37.910Z,46.07
2023-05-15T14:39:20.805Z,45.33
2023-05-15T14:42:12.318Z,45.99
2023-05-15T14:47:46.805Z,47.47
2023-05-15T14:50:34.647Z,45.49
2023-05-15T14:53:18.492Z,49.25
2023-05-15T14:56:02.490Z,48.52
2023-05-15T14:58:45.508Z,46.44
2023-05-15T15:04:20.506Z,45.04
2023-05-15T15:07:03.647Z,46.40
2023-05-15T15:10:00.308Z,46.37
2023-05-15T15:12:43.355Z,47.35
2023-05-15T15:15:28.604Z,45.90
2023-05-15T15:18:17.539Z,46.55
2023-05-15T15:21:00.626Z,47.41
2023-05-15T15:23:50.421Z,47.28
2023-05-15T15:26:38.736Z,47.37
2023-05-15T15:29:35.976Z,49.54
2023-05-15T15:32:33.611Z,50.05
2023-05-15T15:35:13.049Z,49.37
2023-05-15T15:37:43.151Z,48.88
2023-05-15T15:42:48.667Z,48.93
2023-05-15T15:48:30.545Z,50.59
2023-05-15T15:51:22.782Z,50.24
2023-05-15T15:56:43.551Z,49.52
2023-05-15T15:59:15.709Z,47.07
2023-05-15T16:04:30.809Z,47.60
2023-05-15T16:07:22.488Z,47.26
2023-05-15T16:12:41.064Z,47.36
2023-05-15T16:17:43.993Z,46.82
2023-05-15T16:20:36.673Z,49.58
2023-05-15T16:23:09.675Z,48.29
2023-05-15T16:25:47.162Z,50.48
2023-05-15T16:28:39.535Z,49.99
2023-05-15T16:31:11.801Z,49.38
2023-05-15T16:33:57.139Z,46.89
2023-05-15T16:36:34.574Z,47.46
2023-05-15T16:44:17.899Z,47.84
2023-05-15T16:47:04.828Z,48.36
2023-05-15T16:49:54.581Z,47.53
2023-05-15T16:52:48.562Z,48.60
2023-05-15T16:55:33.793Z,47.26
2023-05-15T16:58:40.737Z,46.86
2023-05-15T17:01:50.674Z,45.65
2023-05-15T17:04:40.419Z,48.29
2023-05-15T17:07:52.226Z,48.15
2023-05-15T17:10:42.554Z,49.29
2023-05-15T17:16:22.940Z,48.74
2023-05-15T17:19:17.731Z,50.16
2023-05-15T17:21:51.183Z,49.34
2023-05-15T17:24:49.980Z,47.92
2023-05-15T17:27:25.971Z,48.66
2023-05-15T17:30:10.907Z,50.21
2023-05-15T17:35:43.505Z,49.92
2023-05-15T17:38:35.713Z,49.35
2023-05-15T17:41:22.768Z,49.43
2023-05-15T17:44:12.045Z,49.32
2023-05-15T17:46:55.743Z,49.79
2023-05-15T17:49:53.936Z,50.22
2023-05-15T17:55:31.806Z,50.38
2023-05-15T17:58:19.591Z,50.94
2023-05-15T18:01:12.882Z,50.38
2023-05-15T18:04:03.496Z,49.33
2023-05-15T18:06:39.734Z,48.94
2023-05-15T18:11:54.558Z,51.35
2023-05-15T18:14:23.245Z,52.87
2023-05-15T18:16:55.672Z,53.21
2023-05-15T18:19:29.476Z,54.13
2023-05-15T18:24:46.077Z,53.61
2023-05-15T18:29:56.660Z,53.95
2023-05-15T18:32:35.068Z,54.51
2023-05-15T18:35:09.569Z,54.70
2023-05-15T18:37:42.592Z,55.01
2023-05-15T18:40:11.812Z,55.05
2023-05-15T18:42:47.848Z,55.66
2023-05-15T18:45:29.559Z,56.15
2023-05-15T18:48:06.529Z,56.34
2023-05-15T18:50:41.620Z,56.88
2023-05-15T18:53:16.644Z,57.18
2023-05-15T18:55:54.504Z,56.86
2023-05-15T18:58:32.681Z,57.37
2023-05-15T19:01:17.350Z,57.39
2023-05-15T19:04:16.689Z,57.50
2023-05-15T19:06:55.639Z,57.53
2023-05-15T19:09:45.578Z,58.01
2023-05-15T19:12:16.040Z,57.31
2023-05-15T19:15:08.671Z,57.48
2023-05-15T19:17:42.604Z,57.77
2023-05-15T19:20:23.821Z,58.02
2023-05-15T19:23:12.990Z,57.80
2023-05-15T19:26:13.485Z,57.84
2023-05-15T19:28:52.960Z,57.66
2023-05-15T19:33:59.572Z,58.53
2023-05-15T19:37:00.102Z,59.12
2023-05-15T19:43:24.780Z,59.16
2023-05-15T19:46:07.290Z,59.64
2023-05-15T19:49:04.857Z,58.80
2023-05-15T19:54:18.811Z,60.00
2023-05-15T19:57:12.865Z,59.96
2023-05-15T19:59:49.534Z,59.70
2023-05-15T20:03:01.578Z,60.28
2023-05-15T20:05:34.566Z,59.99
2023-05-15T20:08:11.281Z,60.76
2023-05-15T20:10:54.564Z,61.40
2023-05-15T20:13:51.594Z,61.50
2023-05-15T20:16:26.907Z,61.19
2023-05-15T20:18:58.637Z,61.60
2023-05-15T20:21:29.973Z,61.47
2023-05-15T20:24:25.586Z,61.14
2023-05-15T20:26:57.974Z,61.72
2023-05-15T20:29:47.697Z,60.92
2023-05-15T20:32:36.353Z,60.91
2023-05-15T20:35:28.712Z,61.12
2023-05-15T20:38:10.702Z,60.97
2023-05-15T20:40:45.972Z,60.54
2023-05-15T20:43:14.772Z,60.49
2023-05-15T20:45:46.153Z,60.66
2023-05-15T20:48:17.892Z,60.15
2023-05-15T20:51:08.449Z,60.14
2023-05-15T20:54:01.501Z,60.23
2023-05-15T20:56:49.779Z,60.49
2023-05-15T20:59:22.035Z,60.79
2023-05-15T21:01:51.164Z,61.16
2023-05-15T21:04:22.809Z,61.44
2023-05-15T21:07:20.100Z,61.67
2023-05-15T21:09:47.847Z,61.39
2023-05-15T21:12:17.404Z,61.54
2023-05-15T21:14:45.261Z,61.28
2023-05-15T21:17:13.294Z,61.66
2023-05-15T21:19:42.816Z,61.46
2023-05-15T21:22:11.403Z,61.24
2023-05-15T21:24:38.873Z,61.34
2023-05-15T21:27:07.948Z,61.34
2023-05-15T21:29:35.189Z,60.93
2023-05-15T21:32:06.616Z,60.97
2023-05-15T21:34:36.676Z,61.34
2023-05-15T21:37:04.269Z,61.32
2023-05-15T21:39:34.666Z,61.12
2023-05-15T21:42:02.900Z,60.72
2023-05-15T21:44:31.080Z,61.06
2023-05-15T21:46:58.970Z,61.30
2023-05-15T21:49:26.314Z,61.45
2023-05-15T21:51:53.708Z,61.20
2023-05-15T21:54:21.856Z,61.07
2023-05-15T21:56:49.092Z,60.84
2023-05-15T21:59:16.862Z,60.88
2023-05-15T22:01:46.452Z,61.37
2023-05-15T22:04:14.915Z,61.07
2023-05-15T22:06:43.791Z,61.39
2023-05-15T22:09:12.100Z,61.11
2023-05-15T22:11:40.417Z,60.12
2023-05-15T22:14:10.034Z,60.75
2023-05-15T22:16:37.951Z,60.67
2023-05-15T22:19:05.981Z,61.22
2023-05-15T22:21:34.721Z,61.25
2023-05-15T22:24:06.142Z,61.30
2023-05-15T22:26:33.486Z,61.64
2023-05-15T22:29:01.593Z,61.44
2023-05-15T22:31:29.702Z,61.12
2023-05-15T22:33:57.276Z,61.26
2023-05-15T22:36:24.703Z,61.89
2023-05-15T22:38:52.424Z,61.64
2023-05-15T22:41:19.909Z,61.66
2023-05-15T22:43:48.465Z,61.80
2023-05-15T22:46:16.380Z,61.91
2023-05-15T22:48:43.804Z,60.73
2023-05-15T22:51:11.450Z,61.00
2023-05-15T22:53:39.645Z,61.20
2023-05-15T22:56:07.140Z,61.91
2023-05-15T22:58:36.902Z,62.83
2023-05-15T23:01:04.688Z,62.09
2023-05-15T23:03:32.616Z,62.39
2023-05-15T23:05:59.899Z,62.62
2023-05-15T23:08:27.794Z,62.30
2023-05-15T23:10:56.321Z,62.08
2023-05-15T23:13:24.489Z,62.32
2023-05-15T23:15:52.173Z,61.61
2023-05-15T23:18:20.287Z,62.19
2023-05-15T23:20:47.918Z,62.08
2023-05-15T23:23:15.964Z,62.38
2023-05-15T23:25:43.927Z,62.55
2023-05-15T23:28:11.371Z,62.58
2023-05-15T23:30:39.095Z,62.90
2023-05-15T23:33:06.414Z,61.99
2023-05-15T23:35:33.904Z,62.49
2023-05-15T23:38:02.060Z,61.92
2023-05-15T23:40:29.692Z,62.80
2023-05-15T23:42:57.000Z,62.93
2023-05-15T23:45:24.507Z,62.71
2023-05-15T23:47:52.344Z,62.72
2023-05-15T23:50:21.223Z,62.47
2023-05-15T23:53:13.477Z,62.41
2023-05-15T23:55:55.530Z,62.66
2023-05-15T23:58:41.853Z,62.80
